createdAt,value
2018-02-15T00:00:50.241Z,81.93
2018-02-15T00:03:17.659Z,80.65
2018-02-15T00:05:45.079Z,86.40
2018-02-15T00:08:12.520Z,75.05
2018-02-15T00:10:39.939Z,74.03
2018-02-15T00:13:07.391Z,79.57
2018-02-15T00:15:34.826Z,79.60
2018-02-15T00:18:02.248Z,78.93
2018-02-15T00:20:29.682Z,79.72
2018-02-15T00:22:57.098Z,74.60
2018-02-15T00:25:24.518Z,78.95
2018-02-15T00:27:51.962Z,73.35
2018-02-15T00:30:19.375Z,76.20
2018-02-15T00:32:46.794Z,68.50
2018-02-15T00:35:14.235Z,72.65
2018-02-15T00:37:41.645Z,59.08
2018-02-15T00:40:09.066Z,64.80
2018-02-15T00:42:36.504Z,55.15
2018-02-15T00:45:03.956Z,66.72
2018-02-15T00:47:31.832Z,69.75
2018-02-15T00:49:59.261Z,58.92
2018-02-15T00:52:26.683Z,58.45
2018-02-15T00:54:54.106Z,58.40
2018-02-15T00:57:21.564Z,56.13
2018-02-15T00:59:48.986Z,64.15
2018-02-15T01:02:16.418Z,59.80
2018-02-15T01:04:43.845Z,64.53
2018-02-15T01:07:11.258Z,55.40
2018-02-15T01:09:38.695Z,53.78
2018-02-15T01:12:06.121Z,64.15
2018-02-15T01:14:33.560Z,56.28
2018-02-15T01:17:00.979Z,59.72
2018-02-15T01:19:28.406Z,60.60
2018-02-15T01:21:55.846Z,59.10
2018-02-15T01:24:23.278Z,54.55
2018-02-15T01:26:50.697Z,55.22
2018-02-15T01:29:18.130Z,57.67
2018-02-15T01:31:45.546Z,55.30
2018-02-15T01:34:12.963Z,51.35
2018-02-15T01:36:40.394Z,61.83
2018-02-15T01:39:07.814Z,54.17
2018-02-15T01:41:35.246Z,57.83
2018-02-15T01:44:02.672Z,68.22
2018-02-15T01:46:30.092Z,47.13
2018-02-15T01:48:57.526Z,50.08
2018-02-15T01:51:24.951Z,50.40
2018-02-15T01:53:52.365Z,56.53
2018-02-15T01:56:19.794Z,63.42
2018-02-15T01:58:47.210Z,60.78
2018-02-15T02:01:14.646Z,54.55
2018-02-15T02:03:42.066Z,51.58
2018-02-15T02:06:09.477Z,49.45
2018-02-15T02:08:36.915Z,50.03
2018-02-15T02:11:04.335Z,49.65
2018-02-15T02:13:31.768Z,55.75
2018-02-15T02:15:59.197Z,53.00
2018-02-15T02:18:27.176Z,57.30
2018-02-15T02:20:54.613Z,55.35
2018-02-15T02:23:22.039Z,50.08
2018-02-15T02:25:49.469Z,50.20
2018-02-15T02:28:18.771Z,46.20
2018-02-15T02:30:47.079Z,51.72
2018-02-15T02:33:14.511Z,45.35
2018-02-15T02:35:41.930Z,55.42
2018-02-15T02:38:09.374Z,50.78
2018-02-15T02:40:36.795Z,59.80
2018-02-15T02:43:04.204Z,64.43
2018-02-15T02:45:31.662Z,53.08
2018-02-15T02:47:59.074Z,49.17
2018-02-15T02:50:26.501Z,53.97
2018-02-15T02:52:53.923Z,54.22
2018-02-15T02:55:21.345Z,53.17
2018-02-15T02:57:48.774Z,43.67
2018-02-15T03:00:16.195Z,49.35
2018-02-15T03:02:43.618Z,43.80
2018-02-15T03:05:11.057Z,46.13
2018-02-15T03:07:38.478Z,39.42
2018-02-15T03:10:05.898Z,43.00
2018-02-15T03:12:33.329Z,46.00
2018-02-15T03:15:00.754Z,40.10
2018-02-15T03:17:28.171Z,49.88
2018-02-15T03:19:55.602Z,58.65
2018-02-15T03:22:22.991Z,51.03
2018-02-15T03:24:50.446Z,42.40
2018-02-15T03:27:17.879Z,47.42
2018-02-15T03:29:45.299Z,37.83
2018-02-15T03:32:12.719Z,42.95
2018-02-15T03:34:40.146Z,41.65
2018-02-15T03:37:07.565Z,36.85
2018-02-15T03:39:34.982Z,40.45
2018-02-15T03:42:02.412Z,41.35
2018-02-15T03:44:29.831Z,39.03
2018-02-15T03:46:57.267Z,41.33
2018-02-15T03:49:24.686Z,32.47
2018-02-15T03:51:52.103Z,36.60
2018-02-15T03:54:19.535Z,39.38
2018-02-15T03:56:46.958Z,36.88
2018-02-15T03:59:14.370Z,37.60
2018-02-15T04:01:41.804Z,41.17
2018-02-15T04:04:09.219Z,33.40
2018-02-15T04:06:36.642Z,36.72
2018-02-15T04:09:04.088Z,39.45
2018-02-15T04:11:31.505Z,46.53
2018-02-15T04:13:58.923Z,41.95
2018-02-15T04:16:26.345Z,32.03
2018-02-15T04:18:53.768Z,34.67
2018-02-15T04:21:21.205Z,41.70
2018-02-15T04:23:48.631Z,31.10
2018-02-15T04:26:16.056Z,36.67
2018-02-15T04:28:43.486Z,31.92
2018-02-15T04:31:10.906Z,34.38
2018-02-15T04:33:38.318Z,39.38
2018-02-15T04:36:05.749Z,30.88
2018-02-15T04:38:33.171Z,35.00
2018-02-15T04:41:00.606Z,32.60
2018-02-15T04:43:28.018Z,31.33
2018-02-15T04:45:55.458Z,32.92
2018-02-15T04:48:22.893Z,40.75
2018-02-15T04:50:50.272Z,39.95
2018-02-15T04:53:17.725Z,32.00
2018-02-15T04:55:45.154Z,36.47
2018-02-15T04:58:12.583Z,34.25
2018-02-15T05:00:40.011Z,36.13
2018-02-15T05:03:07.439Z,34.35
2018-02-15T05:05:34.858Z,33.95
2018-02-15T05:08:02.296Z,37.60
2018-02-15T05:10:29.714Z,34.85
2018-02-15T05:12:57.150Z,44.25
2018-02-15T05:15:24.558Z,30.25
2018-02-15T05:17:51.979Z,30.73
2018-02-15T05:20:19.409Z,39.55
2018-02-15T05:22:46.817Z,36.40
2018-02-15T05:25:14.250Z,38.08
2018-02-15T05:27:41.676Z,34.20
2018-02-15T05:30:09.090Z,32.67
2018-02-15T05:32:36.519Z,39.08
2018-02-15T05:35:03.937Z,38.85
2018-02-15T05:37:31.379Z,41.37
2018-02-15T05:39:58.794Z,42.58
2018-02-15T05:42:26.210Z,47.55
2018-02-15T05:44:53.644Z,55.83
2018-02-15T05:47:21.067Z,41.37
2018-02-15T05:49:48.490Z,40.20
2018-02-15T05:52:15.919Z,48.85
2018-02-15T05:54:43.338Z,43.58
2018-02-15T05:57:10.770Z,46.37
2018-02-15T05:59:38.191Z,49.78
2018-02-15T06:02:05.616Z,47.60
2018-02-15T06:04:33.041Z,44.53
2018-02-15T06:07:00.453Z,44.80
2018-02-15T06:09:27.875Z,41.22
2018-02-15T06:11:55.310Z,37.35
2018-02-15T06:14:22.794Z,41.05
2018-02-15T06:16:50.212Z,39.33
2018-02-15T06:19:17.639Z,43.28
2018-02-15T06:21:45.065Z,47.85
2018-02-15T06:24:12.495Z,50.17
2018-02-15T06:26:39.918Z,48.60
2018-02-15T06:29:07.325Z,42.33
2018-02-15T06:31:34.762Z,53.65
2018-02-15T06:34:02.171Z,46.30
2018-02-15T06:36:29.594Z,41.92
2018-02-15T06:38:57.026Z,59.15
2018-02-15T06:41:24.443Z,39.60
2018-02-15T06:43:51.863Z,42.53
2018-02-15T06:46:19.312Z,41.60
2018-02-15T06:48:46.726Z,46.40
2018-02-15T06:51:14.262Z,41.00
2018-02-15T06:53:41.690Z,42.60
2018-02-15T06:56:09.111Z,41.40
2018-02-15T06:58:36.533Z,38.20
2018-02-15T07:01:03.971Z,36.22
2018-02-15T07:03:31.379Z,29.73
2018-02-15T07:05:58.794Z,29.55
2018-02-15T07:08:26.232Z,38.22
2018-02-15T07:10:53.653Z,39.17
2018-02-15T07:13:21.066Z,37.35
2018-02-15T07:15:48.494Z,38.58
2018-02-15T07:18:15.910Z,45.65
2018-02-15T07:20:43.334Z,45.00
2018-02-15T07:23:10.770Z,51.65
2018-02-15T07:25:38.195Z,35.30
2018-02-15T07:28:05.614Z,47.97
2018-02-15T07:30:33.047Z,37.97
2018-02-15T07:33:00.475Z,34.13
2018-02-15T07:35:27.910Z,31.33
2018-02-15T07:37:55.352Z,41.83
2018-02-15T07:40:22.758Z,33.03
2018-02-15T07:42:50.190Z,31.48
2018-02-15T07:45:17.601Z,39.63
2018-02-15T07:47:45.038Z,31.40
2018-02-15T07:50:12.466Z,32.80
2018-02-15T07:52:39.889Z,31.67
2018-02-15T07:55:07.310Z,39.08
2018-02-15T07:57:34.734Z,34.65
2018-02-15T08:00:02.166Z,45.78
2018-02-15T08:02:29.588Z,37.72
2018-02-15T08:04:57.096Z,63.13
2018-02-15T08:07:24.522Z,41.05
2018-02-15T08:09:51.937Z,41.70
2018-02-15T08:12:19.362Z,42.72
2018-02-15T08:14:46.794Z,38.85
2018-02-15T08:17:14.214Z,33.97
2018-02-15T08:19:41.643Z,40.83
2018-02-15T08:22:09.074Z,40.67
2018-02-15T08:24:36.515Z,32.67
2018-02-15T08:27:03.946Z,38.53
2018-02-15T08:29:31.367Z,36.33
2018-02-15T08:31:58.833Z,32.28
2018-02-15T08:34:26.266Z,46.45
2018-02-15T08:36:53.698Z,48.50
2018-02-15T08:39:21.119Z,32.72
2018-02-15T08:41:48.563Z,42.62
2018-02-15T08:44:15.990Z,42.08
2018-02-15T08:46:43.413Z,36.65
2018-02-15T08:49:10.852Z,38.65
2018-02-15T08:51:38.271Z,43.75
2018-02-15T08:54:05.687Z,31.62
2018-02-15T08:56:33.110Z,38.83
2018-02-15T08:59:00.529Z,32.80
2018-02-15T09:01:27.966Z,31.80
2018-02-15T09:03:55.412Z,39.90
2018-02-15T09:06:22.860Z,33.38
2018-02-15T09:08:50.290Z,34.05
2018-02-15T09:11:17.702Z,34.15
2018-02-15T09:13:45.143Z,38.15
2018-02-15T09:16:12.714Z,38.42
2018-02-15T09:18:40.147Z,32.38
2018-02-15T09:21:08.242Z,33.10
2018-02-15T09:23:35.669Z,41.40
2018-02-15T09:26:03.093Z,36.00
2018-02-15T09:28:30.514Z,38.22
2018-02-15T09:30:57.939Z,34.55
2018-02-15T09:33:25.517Z,35.80
2018-02-15T09:35:53.071Z,32.58
2018-02-15T09:38:20.525Z,32.22
2018-02-15T09:40:48.051Z,44.90
2018-02-15T09:43:15.561Z,37.80
2018-02-15T09:45:43.260Z,38.22
2018-02-15T09:48:10.864Z,39.78
2018-02-15T09:50:38.543Z,43.63
2018-02-15T09:53:05.974Z,42.45
2018-02-15T09:55:33.413Z,47.13
2018-02-15T09:58:00.860Z,40.47
2018-02-15T10:00:28.270Z,44.75
2018-02-15T10:02:55.696Z,40.22
2018-02-15T10:05:23.123Z,40.45
2018-02-15T10:07:50.559Z,40.15
2018-02-15T10:10:18.009Z,46.00
2018-02-15T10:12:45.430Z,48.63
2018-02-15T10:15:12.879Z,41.28
2018-02-15T10:17:40.818Z,47.62
2018-02-15T10:20:08.339Z,43.22
2018-02-15T10:22:35.746Z,43.05
2018-02-15T10:25:03.183Z,45.50
2018-02-15T10:27:30.611Z,44.80
2018-02-15T10:29:58.038Z,48.58
2018-02-15T10:32:25.498Z,46.25
2018-02-15T10:34:52.927Z,45.17
2018-02-15T10:37:20.336Z,45.80
2018-02-15T10:39:47.820Z,57.13
2018-02-15T10:42:15.242Z,51.30
2018-02-15T10:44:42.692Z,48.45
2018-02-15T10:47:10.101Z,48.78
2018-02-15T10:49:37.533Z,57.35
2018-02-15T10:52:04.963Z,51.33
2018-02-15T10:54:32.387Z,54.28
2018-02-15T10:56:59.829Z,50.15
2018-02-15T10:59:27.250Z,69.15
2018-02-15T11:02:00.222Z,60.63
2018-02-15T11:04:33.389Z,43.47
2018-02-15T11:07:00.815Z,52.00
2018-02-15T11:09:28.250Z,60.33
2018-02-15T11:11:55.675Z,52.78
2018-02-15T11:14:23.109Z,50.25
2018-02-15T11:16:50.997Z,54.35
2018-02-15T11:19:18.377Z,46.53
2018-02-15T11:21:45.821Z,53.00
2018-02-15T11:24:13.257Z,54.33
2018-02-15T11:26:40.694Z,47.95
2018-02-15T11:29:08.134Z,57.45
2018-02-15T11:31:35.568Z,54.50
2018-02-15T11:34:03.023Z,52.50
2018-02-15T11:36:30.454Z,58.60
2018-02-15T11:38:57.883Z,48.87
2018-02-15T11:41:25.323Z,50.80
2018-02-15T11:43:52.745Z,47.88
2018-02-15T11:46:20.170Z,45.50
2018-02-15T11:48:47.617Z,48.67
2018-02-15T11:51:15.038Z,42.45
2018-02-15T11:53:42.468Z,45.10
2018-02-15T11:56:09.914Z,46.42
2018-02-15T11:58:37.335Z,40.08
2018-02-15T12:01:04.762Z,47.83
2018-02-15T12:03:32.235Z,44.72
2018-02-15T12:05:59.677Z,48.13
2018-02-15T12:08:27.118Z,36.88
2018-02-15T12:10:54.538Z,35.33
2018-02-15T12:13:22.014Z,42.22
2018-02-15T12:15:49.431Z,39.75
2018-02-15T12:18:16.862Z,42.55
2018-02-15T12:20:44.338Z,52.47
2018-02-15T12:23:11.730Z,44.65
2018-02-15T12:25:39.176Z,46.28
2018-02-15T12:28:06.628Z,45.83
2018-02-15T12:30:34.064Z,54.38
2018-02-15T12:33:01.486Z,61.42
2018-02-15T12:35:28.933Z,49.40
2018-02-15T12:37:56.373Z,58.85
2018-02-15T12:40:23.803Z,54.35
2018-02-15T12:42:51.230Z,59.15
2018-02-15T12:45:18.694Z,57.55
2018-02-15T12:47:46.116Z,57.67
2018-02-15T12:50:13.548Z,60.63
2018-02-15T12:52:40.986Z,57.65
2018-02-15T12:55:08.410Z,61.95
2018-02-15T12:57:35.834Z,57.75
2018-02-15T13:00:03.292Z,60.55
2018-02-15T13:02:30.715Z,63.65
2018-02-15T13:04:58.146Z,64.00
2018-02-15T13:07:25.593Z,61.08
2018-02-15T13:09:53.036Z,56.37
2018-02-15T13:12:32.269Z,66.35
2018-02-15T13:14:59.705Z,60.78
2018-02-15T13:17:27.138Z,65.10
2018-02-15T13:33:22.894Z,70.57
2018-02-15T13:35:50.332Z,61.58
2018-02-15T13:38:17.778Z,61.37
2018-02-15T13:40:45.211Z,63.08
2018-02-15T13:43:12.646Z,66.12
2018-02-15T13:45:40.074Z,57.15
2018-02-15T13:48:07.499Z,67.12
2018-02-15T13:50:34.934Z,58.95
2018-02-15T13:53:02.362Z,66.10
2018-02-15T13:55:29.806Z,67.57
2018-02-15T13:57:57.238Z,62.83
2018-02-15T14:00:24.659Z,67.10
2018-02-15T14:02:52.090Z,61.08
2018-02-15T14:05:19.518Z,66.30
2018-02-15T14:07:46.966Z,68.78
2018-02-15T14:10:14.386Z,61.40
2018-02-15T14:12:41.817Z,52.03
2018-02-15T14:15:09.371Z,53.80
2018-02-15T14:17:36.844Z,59.58
2018-02-15T14:20:04.271Z,62.92
2018-02-15T14:22:31.719Z,63.05
2018-02-15T14:24:59.142Z,62.40
2018-02-15T14:27:26.570Z,51.78
2018-02-15T14:29:54.096Z,55.10
2018-02-15T14:32:21.514Z,59.80
2018-02-15T14:34:48.963Z,63.83
2018-02-15T14:37:16.387Z,53.47
2018-02-15T14:39:43.823Z,52.65
2018-02-15T14:42:11.246Z,51.35
2018-02-15T14:44:38.683Z,51.30
2018-02-15T14:47:06.116Z,46.65
2018-02-15T14:49:33.590Z,62.53
2018-02-15T14:52:01.028Z,55.30
2018-02-15T14:54:28.460Z,50.80
2018-02-15T14:56:55.913Z,49.65
2018-02-15T14:59:23.343Z,48.42
2018-02-15T15:01:50.783Z,49.80
2018-02-15T15:04:18.218Z,49.27
2018-02-15T15:06:45.651Z,48.22
2018-02-15T15:09:13.089Z,46.42
2018-02-15T15:11:40.531Z,61.13
2018-02-15T15:14:07.966Z,54.80
2018-02-15T15:16:35.393Z,49.25
2018-02-15T15:19:02.834Z,53.05
2018-02-15T15:21:30.276Z,49.83
2018-02-15T15:23:57.759Z,51.42
2018-02-15T15:26:25.170Z,52.22
2018-02-15T15:28:52.593Z,54.55
2018-02-15T15:31:20.031Z,51.67
2018-02-15T15:33:47.479Z,62.90
2018-02-15T15:36:14.907Z,73.60
2018-02-15T15:38:42.340Z,66.30
2018-02-15T15:41:09.791Z,75.43
2018-02-15T15:43:37.217Z,80.78
2018-02-15T15:46:04.652Z,84.35
2018-02-15T15:48:32.094Z,75.90
2018-02-15T15:50:59.532Z,60.72
2018-02-15T15:53:26.979Z,63.95
2018-02-15T15:55:54.419Z,65.18
2018-02-15T15:58:21.865Z,63.75
2018-02-15T16:00:49.316Z,66.50
2018-02-15T16:03:16.767Z,75.15
2018-02-15T16:05:44.198Z,81.10
2018-02-15T16:08:11.625Z,71.00
2018-02-15T16:10:39.059Z,67.82
2018-02-15T16:13:06.502Z,63.17
2018-02-15T16:15:33.953Z,61.33
2018-02-15T16:18:01.378Z,71.40
2018-02-15T16:20:28.824Z,61.15
2018-02-15T16:22:56.289Z,63.47
2018-02-15T16:25:23.728Z,70.22
2018-02-15T16:27:51.158Z,72.32
2018-02-15T16:30:18.619Z,63.50
2018-02-15T16:32:46.063Z,69.87
2018-02-15T16:35:13.489Z,62.72
2018-02-15T16:37:40.939Z,63.75
2018-02-15T16:40:08.365Z,75.37
2018-02-15T16:42:35.802Z,65.07
2018-02-15T16:45:03.251Z,67.18
2018-02-15T16:47:30.670Z,68.12
2018-02-15T16:49:58.118Z,79.68
2018-02-15T16:52:25.543Z,66.40
2018-02-15T16:54:52.966Z,63.65
2018-02-15T16:57:20.418Z,69.32
2018-02-15T16:59:47.864Z,75.10
2018-02-15T17:02:15.303Z,54.70
2018-02-15T17:04:42.758Z,69.60
2018-02-15T17:07:10.186Z,60.88
2018-02-15T17:09:37.623Z,59.97
2018-02-15T17:12:05.067Z,71.80
2018-02-15T17:14:32.498Z,120.40
2018-02-15T17:16:59.938Z,100.05
2018-02-15T17:19:27.372Z,88.18
2018-02-15T17:21:54.810Z,92.62
2018-02-15T17:24:22.263Z,79.85
2018-02-15T17:26:49.706Z,76.62
2018-02-15T17:29:17.145Z,85.25
2018-02-15T17:31:44.599Z,76.28
2018-02-15T17:34:12.023Z,82.88
2018-02-15T17:36:39.454Z,82.12
2018-02-15T17:39:06.903Z,80.18
2018-02-15T17:41:34.330Z,81.72
2018-02-15T17:44:01.767Z,82.85
2018-02-15T17:46:29.228Z,73.60
2018-02-15T17:48:56.666Z,84.95
2018-02-15T17:51:24.082Z,94.22
2018-02-15T17:53:51.538Z,83.47
2018-02-15T17:56:18.974Z,69.78
2018-02-15T17:58:46.415Z,77.28
2018-02-15T18:01:13.842Z,74.68
2018-02-15T18:03:41.274Z,76.60
2018-02-15T18:06:08.717Z,75.20
2018-02-15T18:08:36.151Z,69.32
2018-02-15T18:11:03.585Z,71.07
2018-02-15T18:13:31.025Z,71.50
2018-02-15T18:15:58.455Z,71.50
2018-02-15T18:18:27.310Z,72.72
2018-02-15T18:20:54.755Z,78.35
2018-02-15T18:23:22.186Z,71.40
2018-02-15T18:25:49.626Z,73.28
2018-02-15T18:28:17.066Z,93.60
2018-02-15T18:30:44.517Z,82.60
2018-02-15T18:33:11.951Z,87.20
2018-02-15T18:35:39.382Z,79.72
2018-02-15T18:38:06.830Z,78.45
2018-02-15T18:40:34.254Z,75.70
2018-02-15T18:43:01.683Z,84.53
2018-02-15T18:45:29.133Z,96.72
2018-02-15T18:47:56.571Z,89.43
2018-02-15T18:50:24.018Z,89.90
2018-02-15T18:52:51.445Z,89.22
2018-02-15T18:55:18.894Z,94.30
2018-02-15T18:57:46.338Z,85.75
2018-02-15T19:00:13.771Z,93.45
2018-02-15T19:02:41.215Z,86.57
2018-02-15T19:05:08.662Z,77.43
2018-02-15T19:07:36.133Z,90.55
2018-02-15T19:10:03.579Z,82.68
2018-02-15T19:12:31.006Z,80.10
2018-02-15T19:14:58.450Z,90.50
2018-02-15T19:17:25.890Z,86.53
2018-02-15T19:19:53.342Z,90.35
2018-02-15T19:22:20.790Z,89.87
2018-02-15T19:24:48.222Z,99.20
2018-02-15T19:27:15.666Z,88.45
2018-02-15T19:29:43.136Z,101.93
2018-02-15T19:32:10.566Z,89.85
2018-02-15T19:34:38.008Z,93.55
2018-02-15T19:37:05.466Z,102.30
2018-02-15T19:39:32.897Z,119.93
2018-02-15T19:42:00.402Z,100.05
2018-02-15T19:44:27.829Z,79.87
2018-02-15T19:46:55.283Z,107.57
2018-02-15T19:49:22.732Z,86.32
2018-02-15T19:51:50.163Z,81.43
2018-02-15T19:54:17.589Z,87.90
2018-02-15T19:56:45.042Z,88.75
2018-02-15T19:59:12.468Z,91.12
2018-02-15T20:01:39.905Z,107.60
2018-02-15T20:04:07.379Z,83.30
2018-02-15T20:06:34.814Z,87.25
2018-02-15T20:09:02.259Z,83.28
2018-02-15T20:11:29.707Z,76.90
2018-02-15T20:13:57.140Z,87.75
2018-02-15T20:16:24.595Z,82.80
2018-02-15T20:18:52.047Z,82.50
2018-02-15T20:21:19.482Z,92.22
2018-02-15T20:23:46.930Z,72.32
2018-02-15T20:26:19.906Z,92.22
2018-02-15T20:28:47.348Z,91.72
2018-02-15T20:31:14.778Z,80.65
2018-02-15T20:33:42.228Z,80.10
2018-02-15T20:36:09.667Z,87.70
2018-02-15T20:52:13.775Z,79.50
2018-02-15T20:54:47.038Z,94.05
2018-02-15T20:57:14.795Z,80.43
2018-02-15T20:59:42.712Z,85.35
2018-02-15T21:02:10.184Z,88.78
2018-02-15T21:04:37.833Z,79.50
2018-02-15T21:07:05.784Z,80.47
2018-02-15T21:09:33.410Z,89.53
2018-02-15T21:12:00.956Z,90.38
2018-02-15T21:14:28.589Z,91.05
2018-02-15T21:16:56.018Z,92.28
2018-02-15T21:19:23.473Z,85.62
2018-02-15T21:21:50.906Z,88.80
2018-02-15T21:24:18.347Z,106.20
2018-02-15T21:26:45.790Z,82.20
2018-02-15T21:29:13.222Z,98.30
2018-02-15T21:31:40.669Z,103.43
2018-02-15T21:34:08.117Z,99.45
2018-02-15T21:36:43.163Z,105.37
2018-02-15T21:39:10.625Z,92.32
2018-02-15T21:41:38.063Z,97.32
2018-02-15T21:44:05.510Z,116.60
2018-02-15T21:46:32.970Z,111.85
2018-02-15T21:49:00.406Z,104.47
2018-02-15T21:51:27.845Z,109.70
2018-02-15T21:53:55.295Z,116.60
2018-02-15T21:56:22.739Z,101.65
2018-02-15T21:58:50.170Z,103.18
2018-02-15T22:01:17.622Z,121.68
2018-02-15T22:03:45.064Z,127.30
2018-02-15T22:06:12.502Z,133.40
2018-02-15T22:08:39.941Z,111.97
2018-02-15T22:11:07.384Z,110.12
2018-02-15T22:13:34.835Z,135.85
2018-02-15T22:16:02.275Z,107.28
2018-02-15T22:18:39.311Z,152.15
2018-02-15T22:21:06.863Z,126.40
2018-02-15T22:23:34.292Z,121.53
2018-02-15T22:26:01.742Z,106.03
2018-02-15T22:28:29.186Z,95.25
2018-02-15T22:30:56.627Z,98.00
2018-02-15T22:33:24.078Z,101.53
2018-02-15T22:35:51.498Z,101.27
2018-02-15T22:38:18.930Z,84.82
2018-02-15T22:40:46.378Z,105.50
2018-02-15T22:43:14.359Z,98.50
2018-02-15T22:45:41.811Z,97.53
2018-02-15T22:48:09.304Z,102.75
2018-02-15T22:50:36.734Z,104.30
2018-02-15T22:53:04.178Z,93.13
2018-02-15T22:55:31.615Z,99.35
2018-02-15T22:57:59.056Z,99.05
2018-02-15T23:00:26.498Z,89.03
2018-02-15T23:02:53.938Z,88.87
2018-02-15T23:05:21.388Z,93.45
2018-02-15T23:07:48.818Z,120.37
2018-02-15T23:10:16.259Z,91.65
2018-02-15T23:12:43.703Z,110.93
2018-02-15T23:15:11.138Z,131.98
2018-02-15T23:17:38.583Z,118.70
2018-02-15T23:20:06.028Z,125.12
2018-02-15T23:22:33.462Z,120.55
2018-02-15T23:25:00.898Z,109.22
2018-02-15T23:27:28.350Z,134.90
2018-02-15T23:29:55.776Z,124.70
2018-02-15T23:32:23.213Z,130.80
2018-02-15T23:34:50.679Z,111.95
2018-02-15T23:37:18.107Z,92.60
2018-02-15T23:39:45.534Z,89.72
2018-02-15T23:42:12.974Z,94.60
2018-02-15T23:44:40.405Z,88.28
2018-02-15T23:47:07.858Z,85.25
2018-02-15T23:49:35.303Z,76.97
2018-02-15T23:52:02.731Z,74.55
2018-02-15T23:54:30.174Z,58.03
2018-02-15T23:56:57.611Z,66.85
2018-02-15T23:59:25.042Z,65.65
